Time;durP1;ratioP1;P1;durP2;ratioP2;P2;SDS_P1;SDS_P2;PMS_P1;PMS_P2;Temp;Humidity;BMP_temperature;BMP_pressure;BME280_temperature;BME280_humidity;BME280_pressure;Samples;Min_cycle;Max_cycle;Signal;HPM_P1;HPM_P2
2023/06/22 00:00:43;;;;;;;7.80;4.97;;;18.70;99.90;;;;;;5072141;28;20053;-71
2023/06/22 00:03:09;;;;;;;6.18;3.97;;;18.70;99.90;;;;;;5072233;28;20032;-71
2023/06/22 00:05:34;;;;;;;5.45;3.75;;;18.60;99.90;;;;;;5071620;28;20021;-71
2023/06/22 00:08:04;;;;;;;9.90;6.65;;;18.70;99.90;;;;;;5071681;28;20490;-71
2023/06/22 00:10:29;;;;;;;8.40;6.00;;;18.60;99.90;;;;;;5072208;28;20048;-71
2023/06/22 00:12:55;;;;;;;9.95;5.60;;;18.70;99.90;;;;;;5071412;28;20036;-71
2023/06/22 00:15:20;;;;;;;8.52;5.68;;;18.70;99.90;;;;;;5071823;28;20489;-71
2023/06/22 00:17:46;;;;;;;8.55;7.38;;;18.70;99.90;;;;;;5072248;28;20391;-71
2023/06/22 00:20:12;;;;;;;8.27;5.15;;;18.70;99.90;;;;;;5071273;28;20059;-71
2023/06/22 00:22:38;;;;;;;8.63;5.53;;;18.70;99.90;;;;;;5072017;28;20037;-71
2023/06/22 00:25:07;;;;;;;6.05;4.65;;;18.70;99.90;;;;;;5071768;28;20031;-71
2023/06/22 00:27:32;;;;;;;7.72;6.03;;;18.60;99.90;;;;;;5071550;28;20093;-71
2023/06/22 00:29:58;;;;;;;10.25;6.85;;;18.60;99.90;;;;;;5071335;28;20478;-71
2023/06/22 00:32:23;;;;;;;9.45;6.03;;;18.60;99.90;;;;;;5060038;28;20066;-71
2023/06/22 00:34:50;;;;;;;7.90;6.13;;;18.60;99.90;;;;;;5071179;28;20425;-72
2023/06/22 00:37:15;;;;;;;8.05;6.03;;;18.50;99.90;;;;;;5071286;28;20033;-71
2023/06/22 00:39:42;;;;;;;6.90;6.13;;;18.50;99.90;;;;;;5071639;28;20017;-71
2023/06/22 00:42:08;;;;;;;9.02;6.43;;;18.40;99.90;;;;;;5071216;28;20559;-71
2023/06/22 00:44:34;;;;;;;7.82;4.90;;;18.40;99.90;;;;;;5071637;28;20029;-71
2023/06/22 00:47:00;;;;;;;9.05;6.05;;;18.40;99.90;;;;;;5071504;28;20028;-71
2023/06/22 00:49:26;;;;;;;9.48;5.60;;;18.30;99.90;;;;;;5071603;28;20363;-71
2023/06/22 00:51:52;;;;;;;7.03;5.65;;;18.30;99.90;;;;;;5070811;28;20099;-70
2023/06/22 00:54:24;;;;;;;13.43;7.30;;;18.20;99.90;;;;;;5071343;28;20103;-71
2023/06/22 00:56:54;;;;;;;9.02;6.25;;;18.10;99.90;;;;;;5069593;28;20036;-71
2023/06/22 00:59:20;;;;;;;10.30;6.55;;;18.00;99.90;;;;;;5071252;28;20063;-71
2023/06/22 01:01:45;;;;;;;8.18;5.68;;;18.00;99.90;;;;;;5071377;28;20102;-71
2023/06/22 01:04:11;;;;;;;8.15;6.43;;;17.90;99.90;;;;;;5070821;28;20486;-71
2023/06/22 01:06:45;;;;;;;9.27;6.25;;;17.80;99.90;;;;;;5071438;28;20028;-71
2023/06/22 01:09:26;;;;;;;12.73;7.55;;;17.80;99.90;;;;;;5071032;28;20115;-71
2023/06/22 01:11:57;;;;;;;11.45;7.95;;;17.70;99.90;;;;;;5070689;28;20454;-71
2023/06/22 01:14:37;;;;;;;11.77;8.80;;;17.70;99.90;;;;;;5071414;28;20020;-70
2023/06/22 01:17:05;;;;;;;9.50;7.07;;;17.60;99.90;;;;;;5070807;28;20032;-71
2023/06/22 01:19:55;;;;;;;9.05;7.55;;;17.60;99.90;;;;;;5069948;28;20025;-70
2023/06/22 01:22:24;;;;;;;11.52;7.20;;;17.50;99.90;;;;;;5071308;28;20107;-70
2023/06/22 01:25:11;;;;;;;9.70;7.63;;;17.50;99.90;;;;;;5070787;28;20479;-71
2023/06/22 01:27:45;;;;;;;12.57;8.65;;;17.50;99.90;;;;;;5070922;28;20028;-70
2023/06/22 01:30:13;;;;;;;9.85;8.18;;;17.50;99.90;;;;;;5069308;28;20028;-71
2023/06/22 01:32:40;;;;;;;10.45;7.82;;;17.50;99.90;;;;;;5071093;28;20020;-71
2023/06/22 01:35:08;;;;;;;8.88;7.25;;;17.60;99.90;;;;;;5070534;28;20024;-71
2023/06/22 01:37:35;;;;;;;9.43;7.72;;;17.60;99.90;;;;;;5070840;28;20505;-71
2023/06/22 01:40:04;;;;;;;10.70;7.57;;;17.60;99.90;;;;;;5070667;28;20219;-71
2023/06/22 01:42:30;;;;;;;10.48;7.10;;;17.60;99.90;;;;;;5071237;28;20050;-71
2023/06/22 01:44:56;;;;;;;10.68;8.18;;;17.60;99.90;;;;;;5070603;28;20421;-71
2023/06/22 01:47:23;;;;;;;12.10;8.02;;;17.60;99.90;;;;;;5070906;28;20078;-71
2023/06/22 01:49:51;;;;;;;12.20;8.05;;;17.50;99.90;;;;;;5069802;28;20422;-71
2023/06/22 01:52:18;;;;;;;9.18;7.80;;;17.50;99.90;;;;;;5070550;28;20394;-71
2023/06/22 01:54:43;;;;;;;13.10;7.40;;;17.50;99.90;;;;;;5070886;28;20036;-70
2023/06/22 01:57:10;;;;;;;11.90;7.80;;;17.40;99.90;;;;;;5070428;28;20036;-71
2023/06/22 01:59:49;;;;;;;10.32;8.05;;;17.40;99.90;;;;;;5071094;28;20024;-71
2023/06/22 02:02:19;;;;;;;10.68;7.30;;;17.40;99.90;;;;;;5070616;28;20045;-71
2023/06/22 02:04:51;;;;;;;10.45;7.53;;;17.30;99.90;;;;;;5070092;28;20020;-71
2023/06/22 02:07:18;;;;;;;;;;;17.30;99.90;;;;;;5071405;28;20067;-71
2023/06/22 02:09:47;;;;;;;9.30;6.70;;;17.30;99.90;;;;;;5070683;28;19904;-71
2023/06/22 02:12:16;;;;;;;13.23;7.63;;;17.20;99.90;;;;;;5070248;28;20021;-70
2023/06/22 02:14:43;;;;;;;10.43;7.65;;;17.20;99.90;;;;;;5069539;28;20437;-70
2023/06/22 02:17:09;;;;;;;11.25;8.10;;;17.20;99.90;;;;;;5070288;28;20401;-71
2023/06/22 02:19:41;;;;;;;13.13;7.80;;;17.30;99.90;;;;;;5070538;28;20078;-71
2023/06/22 02:22:06;;;;;;;8.38;6.30;;;17.20;99.90;;;;;;5070413;28;20047;-71
2023/06/22 02:24:33;;;;;;;10.60;7.82;;;17.20;99.90;;;;;;5074341;28;20027;-70
2023/06/22 02:26:59;;;;;;;9.35;6.82;;;17.20;99.90;;;;;;5073501;28;20524;-71
2023/06/22 02:29:26;;;;;;;10.25;7.32;;;17.20;99.90;;;;;;5061614;28;20064;-71
2023/06/22 02:31:52;;;;;;;12.77;7.55;;;17.20;99.90;;;;;;5069069;28;20074;-71
2023/06/22 02:34:18;;;;;;;9.93;7.40;;;17.20;99.90;;;;;;5073877;28;20036;-71
2023/06/22 02:36:53;;;;;;;12.60;7.28;;;17.10;99.90;;;;;;5073996;28;20028;-71
2023/06/22 02:39:23;;;;;;;11.13;7.10;;;17.10;99.90;;;;;;5074305;28;20461;-70
2023/06/22 02:41:50;;;;;;;11.40;6.95;;;17.10;99.90;;;;;;5073740;28;20078;-70
2023/06/22 02:44:15;;;;;;;10.13;6.93;;;17.00;99.90;;;;;;5073860;28;20024;-70
2023/06/22 02:46:41;;;;;;;10.85;7.45;;;17.10;99.90;;;;;;5073768;28;20496;-70
2023/06/22 02:49:07;;;;;;;10.40;7.35;;;17.00;99.90;;;;;;5073154;28;20028;-71
2023/06/22 02:51:34;;;;;;;9.57;7.40;;;17.00;99.90;;;;;;5073820;28;20063;-71
2023/06/22 02:54:00;;;;;;;9.80;6.47;;;17.00;99.90;;;;;;5073131;28;20031;-71
2023/06/22 02:56:26;;;;;;;10.02;7.63;;;17.10;99.90;;;;;;5073287;28;20055;-70
2023/06/22 02:58:52;;;;;;;9.93;7.07;;;17.10;99.90;;;;;;5073368;28;20060;-70
2023/06/22 03:01:23;;;;;;;9.55;7.28;;;17.10;99.90;;;;;;5072895;28;20400;-71
2023/06/22 03:03:49;;;;;;;12.40;7.72;;;17.10;99.90;;;;;;5073347;28;20501;-71
2023/06/22 03:06:15;;;;;;;11.25;6.78;;;17.10;99.90;;;;;;5073039;28;20032;-71
2023/06/22 03:08:41;;;;;;;9.40;7.28;;;17.10;99.90;;;;;;5073568;28;20028;-71
2023/06/22 03:11:07;;;;;;;8.15;7.10;;;17.00;99.90;;;;;;5072949;28;20020;-71
2023/06/22 03:13:33;;;;;;;8.98;7.35;;;17.10;99.90;;;;;;5073199;28;20037;-71
2023/06/22 03:15:59;;;;;;;8.40;6.82;;;17.00;99.90;;;;;;5072770;28;20028;-71
2023/06/22 03:18:24;;;;;;;9.20;7.10;;;17.00;99.90;;;;;;5072907;28;20036;-70
2023/06/22 03:20:50;;;;;;;10.05;7.28;;;17.00;99.90;;;;;;5072636;28;20035;-70
2023/06/22 03:23:15;;;;;;;8.45;7.15;;;16.90;99.90;;;;;;5073059;28;20078;-70
2023/06/22 03:25:44;;;;;;;9.60;8.02;;;16.90;99.90;;;;;;5073170;28;20048;-70
2023/06/22 03:28:10;;;;;;;11.60;8.10;;;16.90;99.90;;;;;;5070781;28;20047;-70
2023/06/22 03:30:36;;;;;;;13.68;8.93;;;16.90;99.90;;;;;;5072640;28;20025;-71
2023/06/22 03:33:01;;;;;;;9.48;7.50;;;16.90;99.90;;;;;;5072362;28;20492;-71
2023/06/22 03:35:27;;;;;;;11.57;8.85;;;16.90;99.90;;;;;;5072818;28;20029;-71
2023/06/22 03:37:52;;;;;;;11.63;8.43;;;16.90;99.90;;;;;;5072535;28;20036;-71
2023/06/22 03:40:18;;;;;;;10.90;8.15;;;16.90;99.90;;;;;;5072636;28;20039;-71
2023/06/22 03:42:43;;;;;;;10.98;8.18;;;16.80;99.90;;;;;;5072777;28;20025;-70
2023/06/22 03:45:10;;;;;;;9.98;7.95;;;16.90;99.90;;;;;;5071882;28;20025;-70
2023/06/22 03:47:35;;;;;;;11.88;8.60;;;16.90;99.90;;;;;;5072594;28;20024;-71
2023/06/22 03:50:03;;;;;;;13.85;8.60;;;16.80;99.90;;;;;;5072207;28;20062;-71
2023/06/22 03:52:29;;;;;;;10.90;7.72;;;16.90;99.90;;;;;;5072436;28;20016;-70
2023/06/22 03:54:54;;;;;;;12.43;8.40;;;16.80;99.90;;;;;;5072217;28;20028;-71
2023/06/22 03:57:20;;;;;;;11.88;8.15;;;16.80;99.90;;;;;;5071975;28;20121;-70
2023/06/22 03:59:45;;;;;;;14.30;8.10;;;16.80;99.90;;;;;;5072435;28;20028;-70
2023/06/22 04:02:11;;;;;;;10.88;8.30;;;16.80;99.90;;;;;;5071586;28;20044;-70
2023/06/22 04:04:38;;;;;;;9.70;7.65;;;16.80;99.90;;;;;;5072366;28;20044;-70
2023/06/22 04:07:04;;;;;;;11.90;8.32;;;16.80;99.90;;;;;;5071781;28;20020;-70
2023/06/22 04:09:30;;;;;;;9.10;8.15;;;16.90;99.90;;;;;;5072072;28;20194;-70
2023/06/22 04:11:55;;;;;;;13.57;7.32;;;16.80;99.90;;;;;;5071679;28;20123;-70
2023/06/22 04:14:21;;;;;;;11.85;7.30;;;16.90;99.90;;;;;;5071777;28;20474;-70
2023/06/22 04:16:47;;;;;;;10.27;7.63;;;16.90;99.90;;;;;;5071875;28;20178;-70
2023/06/22 04:19:16;;;;;;;12.25;7.55;;;16.90;99.90;;;;;;5071584;28;20025;-70
2023/06/22 04:21:43;;;;;;;11.68;9.30;;;16.90;99.90;;;;;;5072125;28;20020;-70
2023/06/22 04:24:08;;;;;;;10.57;8.18;;;17.00;99.90;;;;;;5071355;28;20024;-71
2023/06/22 04:26:36;;;;;;;11.40;7.85;;;17.00;99.90;;;;;;5061028;28;20112;-70
2023/06/22 04:29:05;;;;;;;9.77;7.88;;;17.10;99.90;;;;;;5069333;28;20035;-71
2023/06/22 04:31:31;;;;;;;9.75;7.95;;;17.10;99.90;;;;;;5071716;28;20482;-70
2023/06/22 04:34:05;;;;;;;12.68;8.40;;;17.10;99.90;;;;;;5071261;28;20377;-70
2023/06/22 04:36:37;;;;;;;10.80;8.02;;;17.20;99.90;;;;;;5071677;28;20021;-70
2023/06/22 04:39:06;;;;;;;12.52;8.75;;;17.30;99.90;;;;;;5071600;28;20028;-70
2023/06/22 04:41:41;;;;;;;11.50;9.05;;;17.40;99.90;;;;;;5070081;28;20031;-70
2023/06/22 04:44:23;;;;;;;13.25;10.38;;;17.50;99.90;;;;;;5071529;28;20021;-71
2023/06/22 04:46:54;;;;;;;11.27;8.95;;;17.60;99.90;;;;;;5070582;28;20062;-71
2023/06/22 04:49:21;;;;;;;13.70;8.88;;;17.60;99.90;;;;;;5071663;28;20035;-70
2023/06/22 04:51:46;;;;;;;15.35;9.32;;;17.70;99.90;;;;;;5071628;28;20039;-70
2023/06/22 04:54:12;;;;;;;14.50;9.10;;;17.80;99.90;;;;;;5071044;28;20410;-71
2023/06/22 04:56:40;;;;;;;12.80;9.32;;;17.90;99.90;;;;;;5070903;28;20039;-70
2023/06/22 04:59:06;;;;;;;10.65;9.45;;;18.10;99.90;;;;;;5070927;28;20028;-70
2023/06/22 05:01:32;;;;;;;14.50;10.98;;;18.20;99.90;;;;;;5070863;28;20379;-71
2023/06/22 05:04:00;;;;;;;13.23;9.52;;;18.60;99.90;;;;;;5071089;28;20031;-71
2023/06/22 05:06:27;;;;;;;13.23;9.55;;;18.90;99.90;;;;;;5071317;28;20498;-70
2023/06/22 05:08:57;;;;;;;14.30;9.23;;;19.20;99.90;;;;;;5070595;28;20109;-71
2023/06/22 05:11:26;;;;;;;16.48;10.20;;;19.50;99.90;;;;;;5071436;28;20029;-71
2023/06/22 05:13:52;;;;;;;16.73;11.48;;;19.70;99.90;;;;;;5071093;28;20025;-71
2023/06/22 05:16:23;;;;;;;13.43;10.73;;;19.90;99.90;;;;;;5071372;28;20052;-71
2023/06/22 05:18:53;;;;;;;14.77;10.55;;;20.00;99.90;;;;;;5070778;28;20039;-71
2023/06/22 05:21:29;;;;;;;12.48;10.32;;;20.20;99.90;;;;;;5071068;28;20035;-71
2023/06/22 05:23:55;;;;;;;16.13;10.25;;;20.40;99.90;;;;;;5071016;28;20500;-71
2023/06/22 05:26:22;;;;;;;18.20;12.18;;;20.60;99.90;;;;;;5069166;28;20032;-71
2023/06/22 05:28:48;;;;;;;15.38;11.52;;;20.70;99.90;;;;;;5071170;28;20516;-71
2023/06/22 05:31:14;;;;;;;21.27;13.27;;;20.90;99.90;;;;;;5071155;28;20025;-71
2023/06/22 05:33:41;;;;;;;18.10;12.70;;;21.10;99.90;;;;;;5071212;28;20028;-71
2023/06/22 05:36:07;;;;;;;18.38;13.23;;;21.30;99.90;;;;;;5070132;28;20107;-71
2023/06/22 05:38:33;;;;;;;15.50;13.43;;;21.50;99.90;;;;;;5071224;28;20079;-71
2023/06/22 05:40:58;;;;;;;18.33;12.65;;;21.60;99.90;;;;;;5070511;28;20490;-71
2023/06/22 05:43:24;;;;;;;16.30;12.80;;;21.70;99.90;;;;;;5070671;28;20038;-71
2023/06/22 05:45:50;;;;;;;20.77;14.40;;;21.90;99.90;;;;;;5070473;28;20103;-71
2023/06/22 05:48:23;;;;;;;17.85;15.18;;;21.90;99.90;;;;;;5070952;28;20032;-71
2023/06/22 05:50:49;;;;;;;20.95;15.02;;;22.00;99.90;;;;;;5069042;28;20044;-71
2023/06/22 05:53:15;;;;;;;16.50;13.55;;;22.00;99.90;;;;;;5070832;28;20083;-71
2023/06/22 05:55:40;;;;;;;19.85;15.85;;;22.00;99.90;;;;;;5069707;28;20516;-71
2023/06/22 05:58:06;;;;;;;18.88;14.93;;;21.90;99.90;;;;;;5073641;28;20056;-71
2023/06/22 06:00:32;;;;;;;18.38;15.35;;;21.90;99.90;;;;;;5074299;28;20094;-71
2023/06/22 06:03:02;;;;;;;20.17;17.95;;;21.90;99.90;;;;;;5074179;28;20059;-71
2023/06/22 06:05:29;;;;;;;20.65;15.13;;;21.90;99.90;;;;;;5074197;28;20021;-71
2023/06/22 06:07:54;;;;;;;20.83;16.88;;;21.90;99.90;;;;;;5074024;28;20107;-71
2023/06/22 06:10:20;;;;;;;21.35;18.45;;;22.00;99.90;;;;;;5074352;28;20150;-71
2023/06/22 06:12:45;;;;;;;24.77;19.17;;;22.00;99.90;;;;;;5074307;28;20033;-71
2023/06/22 06:15:11;;;;;;;22.33;17.27;;;22.00;99.90;;;;;;5073907;28;20020;-71
2023/06/22 06:17:45;;;;;;;25.33;18.13;;;22.20;99.90;;;;;;5074302;28;20033;-71
2023/06/22 06:20:12;;;;;;;20.83;17.05;;;22.30;99.90;;;;;;5074064;28;20106;-71
2023/06/22 06:22:37;;;;;;;21.88;17.23;;;22.40;99.90;;;;;;5074637;28;20488;-70
2023/06/22 06:25:04;;;;;;;23.65;17.55;;;22.40;99.90;;;;;;5055583;28;20027;-71
2023/06/22 06:27:30;;;;;;;24.95;18.80;;;22.50;99.90;;;;;;5073748;28;20482;-71
2023/06/22 06:29:55;;;;;;;23.73;17.83;;;22.50;99.90;;;;;;5073727;28;20028;-71
2023/06/22 06:32:21;;;;;;;26.67;19.15;;;22.40;99.90;;;;;;5073918;28;20021;-71
2023/06/22 06:34:46;;;;;;;21.60;17.35;;;22.40;99.90;;;;;;5073698;28;20094;-71
2023/06/22 06:37:12;;;;;;;20.05;16.42;;;22.40;99.90;;;;;;5073233;28;20367;-71
2023/06/22 06:39:37;;;;;;;18.67;15.32;;;22.40;99.90;;;;;;5073800;28;20024;-71
2023/06/22 06:42:04;;;;;;;21.65;17.58;;;22.50;99.90;;;;;;5072990;28;20059;-71
2023/06/22 06:44:30;;;;;;;22.10;17.67;;;22.60;99.90;;;;;;5073399;28;20094;-71
2023/06/22 06:46:55;;;;;;;20.17;15.82;;;22.60;99.90;;;;;;5073062;28;20028;-71
2023/06/22 06:49:21;;;;;;;21.48;17.60;;;22.60;99.90;;;;;;5073627;28;20028;-71
2023/06/22 06:51:46;;;;;;;16.60;14.90;;;22.70;99.90;;;;;;5072309;28;20059;-71
2023/06/22 06:54:12;;;;;;;18.05;15.77;;;22.80;99.90;;;;;;5073294;28;20027;-71
2023/06/22 06:56:38;;;;;;;19.45;15.93;;;22.80;99.90;;;;;;5073235;28;20036;-71
2023/06/22 06:59:03;;;;;;;20.95;16.52;;;22.80;99.90;;;;;;5073222;28;20111;-71
2023/06/22 07:01:33;;;;;;;20.83;16.17;;;22.80;99.90;;;;;;5072935;28;20048;-71
2023/06/22 07:03:59;;;;;;;17.40;14.10;;;22.90;99.90;;;;;;5073542;28;20414;-71
2023/06/22 07:06:28;;;;;;;17.25;14.35;;;23.00;99.90;;;;;;5073455;28;20024;-71
2023/06/22 07:08:55;;;;;;;15.38;13.23;;;23.00;99.90;;;;;;5072282;28;20020;-71
2023/06/22 07:11:20;;;;;;;18.45;14.95;;;23.00;99.90;;;;;;5073347;28;20028;-71
2023/06/22 07:13:46;;;;;;;21.33;15.52;;;23.00;99.90;;;;;;5073249;28;20370;-71
2023/06/22 07:16:11;;;;;;;18.33;15.05;;;23.00;99.90;;;;;;5072782;28;20086;-71
2023/06/22 07:18:39;;;;;;;17.98;15.43;;;23.00;99.90;;;;;;5073255;28;20509;-71
2023/06/22 07:21:06;;;;;;;16.63;13.25;;;23.00;99.90;;;;;;5072741;28;20035;-71
2023/06/22 07:23:32;;;;;;;20.33;16.33;;;23.10;99.90;;;;;;5072361;28;20041;-71
2023/06/22 07:26:01;;;;;;;16.55;14.75;;;23.10;99.90;;;;;;5072255;28;20024;-71
2023/06/22 07:28:27;;;;;;;19.25;14.90;;;23.00;99.90;;;;;;5072604;28;20120;-71
2023/06/22 07:30:53;;;;;;;16.98;15.05;;;23.00;99.90;;;;;;5072437;28;20127;-71
2023/06/22 07:33:19;;;;;;;13.88;11.50;;;23.00;99.90;;;;;;5073135;28;20036;-71
2023/06/22 07:35:44;;;;;;;16.52;13.02;;;23.10;99.90;;;;;;5072975;28;20082;-71
2023/06/22 07:38:10;;;;;;;21.95;16.35;;;23.20;99.90;;;;;;5072070;28;20525;-71
2023/06/22 07:40:36;;;;;;;18.52;14.23;;;23.40;99.90;;;;;;5072866;28;20359;-71
2023/06/22 07:43:03;;;;;;;19.42;15.88;;;23.50;99.90;;;;;;5071858;28;20035;-71
2023/06/22 07:45:29;;;;;;;15.20;12.65;;;23.50;99.90;;;;;;5072019;28;20013;-71
2023/06/22 07:47:54;;;;;;;17.27;14.13;;;23.70;99.90;;;;;;5071958;28;20432;-71
2023/06/22 07:50:20;;;;;;;15.80;13.95;;;23.70;99.90;;;;;;5072531;28;20025;-71
2023/06/22 07:52:47;;;;;;;15.45;13.30;;;23.70;99.90;;;;;;5072550;28;20060;-71
2023/06/22 07:55:12;;;;;;;21.27;14.50;;;23.80;99.90;;;;;;5071957;28;20021;-71
2023/06/22 07:57:38;;;;;;;18.88;14.23;;;23.90;99.90;;;;;;5072322;28;20039;-71
2023/06/22 08:00:15;;;;;;;13.82;12.40;;;24.00;99.90;;;;;;5071838;28;20017;-71
2023/06/22 08:02:42;;;;;;;17.02;13.35;;;24.20;99.90;;;;;;5072657;28;20048;-71
2023/06/22 08:05:09;;;;;;;17.45;14.02;;;24.30;99.90;;;;;;5071813;28;20024;-71
2023/06/22 08:07:37;;;;;;;15.90;12.93;;;24.40;99.90;;;;;;5072120;28;20032;-71
2023/06/22 08:10:03;;;;;;;17.45;13.60;;;24.60;99.90;;;;;;5071532;28;20046;-71
2023/06/22 08:12:28;;;;;;;16.35;14.20;;;24.60;99.90;;;;;;5072180;28;20042;-71
2023/06/22 08:14:54;;;;;;;12.35;10.52;;;24.70;99.90;;;;;;5071660;28;20280;-71
2023/06/22 08:17:19;;;;;;;17.58;13.55;;;24.70;99.90;;;;;;5072280;28;20029;-71
2023/06/22 08:19:45;;;;;;;15.10;13.13;;;24.80;99.90;;;;;;5071037;28;20024;-71
2023/06/22 08:22:10;;;;;;;17.70;13.23;;;24.90;99.90;;;;;;5056668;28;20028;-71
2023/06/22 08:24:36;;;;;;;13.55;12.07;;;24.90;99.90;;;;;;5071830;28;20054;-71
2023/06/22 08:27:01;;;;;;;19.13;14.45;;;25.10;99.90;;;;;;5071534;28;20026;-71
2023/06/22 08:29:27;;;;;;;15.60;11.68;;;25.10;99.90;;;;;;5071603;28;20086;-71
2023/06/22 08:31:52;;;;;;;11.82;10.68;;;25.10;99.90;;;;;;5071071;28;20028;-71
2023/06/22 08:34:21;;;;;;;12.80;11.45;;;25.20;99.90;;;;;;5071556;28;20027;-71
2023/06/22 08:36:51;;;;;;;12.70;11.40;;;25.10;99.90;;;;;;5071404;28;20039;-71
2023/06/22 08:39:17;;;;;;;14.43;13.02;;;25.10;99.90;;;;;;5072235;28;20031;-71
2023/06/22 08:41:43;;;;;;;14.25;10.93;;;25.10;99.90;;;;;;5071368;28;20112;-71
2023/06/22 08:44:08;;;;;;;13.43;11.13;;;25.10;99.90;;;;;;5070668;28;20150;-71
2023/06/22 08:46:34;;;;;;;14.40;11.88;;;25.30;99.90;;;;;;5071520;28;20024;-71
2023/06/22 08:48:59;;;;;;;15.77;12.85;;;25.30;99.90;;;;;;5071360;28;20035;-71
2023/06/22 08:51:26;;;;;;;15.32;11.93;;;25.30;99.90;;;;;;5071608;28;20028;-71
2023/06/22 08:53:51;;;;;;;13.25;11.38;;;25.30;99.90;;;;;;5070887;28;20021;-71
2023/06/22 08:56:17;;;;;;;14.05;12.60;;;25.40;99.90;;;;;;5071261;28;20218;-71
2023/06/22 08:58:43;;;;;;;15.50;11.93;;;25.40;99.60;;;;;;5071158;28;20033;-71
2023/06/22 09:01:08;;;;;;;13.85;10.57;;;25.50;99.30;;;;;;5070938;28;20446;-71
2023/06/22 09:03:36;;;;;;;13.43;10.75;;;25.50;98.90;;;;;;5071260;28;20066;-71
2023/06/22 09:06:02;;;;;;;10.77;8.63;;;25.60;98.80;;;;;;5071178;28;20382;-71
2023/06/22 09:08:27;;;;;;;12.80;11.23;;;25.70;98.60;;;;;;5071266;28;20025;-71
2023/06/22 09:10:53;;;;;;;13.30;11.13;;;25.70;97.80;;;;;;5070886;28;20029;-71
2023/06/22 09:13:18;;;;;;;12.52;9.05;;;25.70;97.30;;;;;;5071232;28;20028;-71
2023/06/22 09:15:44;;;;;;;9.73;8.55;;;25.70;97.00;;;;;;5071110;28;20025;-71
2023/06/22 09:18:13;;;;;;;14.10;10.25;;;25.60;96.70;;;;;;5070608;28;20086;-71
2023/06/22 09:20:39;;;;;;;11.25;8.75;;;25.60;96.20;;;;;;5070651;28;20031;-71
2023/06/22 09:23:04;;;;;;;10.38;7.65;;;25.50;96.10;;;;;;5070694;28;20466;-72
2023/06/22 09:25:30;;;;;;;12.30;9.43;;;25.50;96.30;;;;;;5071254;28;20032;-71
2023/06/22 09:27:55;;;;;;;8.77;7.95;;;25.50;96.30;;;;;;5070388;28;20020;-71
2023/06/22 09:30:22;;;;;;;10.82;7.95;;;25.50;96.50;;;;;;5071211;28;20102;-71
2023/06/22 09:32:47;;;;;;;10.95;8.23;;;25.60;96.20;;;;;;5074006;28;20493;-71
2023/06/22 09:35:13;;;;;;;9.98;8.18;;;25.60;95.90;;;;;;5074594;28;20090;-71
2023/06/22 09:37:39;;;;;;;10.13;9.07;;;25.60;95.80;;;;;;5075009;28;20090;-71
2023/06/22 09:40:09;;;;;;;10.57;8.93;;;25.60;95.70;;;;;;5074790;28;20386;-71
2023/06/22 09:42:35;;;;;;;9.98;7.97;;;25.60;95.60;;;;;;5074791;28;20032;-71
2023/06/22 09:45:01;;;;;;;11.98;8.85;;;25.70;95.50;;;;;;5074495;28;20032;-71
2023/06/22 09:47:27;;;;;;;15.10;9.20;;;25.60;95.10;;;;;;5075212;28;20025;-71
2023/06/22 09:49:55;;;;;;;9.48;8.30;;;25.60;95.10;;;;;;5074419;28;20032;-71
2023/06/22 09:52:21;;;;;;;7.45;6.20;;;25.60;95.40;;;;;;5074877;28;20086;-71
2023/06/22 09:54:46;;;;;;;7.63;6.82;;;25.60;95.30;;;;;;5074539;28;20056;-71
2023/06/22 09:57:12;;;;;;;7.40;6.63;;;25.50;95.00;;;;;;5074100;28;20060;-71
2023/06/22 09:59:39;;;;;;;8.13;6.70;;;25.50;94.80;;;;;;5074961;28;20616;-72
2023/06/22 10:02:06;;;;;;;6.97;6.28;;;25.40;94.70;;;;;;5073745;28;20052;-71
2023/06/22 10:04:31;;;;;;;7.43;5.93;;;25.40;94.70;;;;;;5074535;28;20028;-71
2023/06/22 10:06:57;;;;;;;9.52;6.15;;;25.40;94.90;;;;;;5073888;28;20028;-71
2023/06/22 10:09:22;;;;;;;10.18;5.93;;;25.40;94.70;;;;;;5074502;28;20024;-71
2023/06/22 10:11:48;;;;;;;5.45;4.53;;;25.30;94.60;;;;;;5074342;28;20021;-71
2023/06/22 10:14:13;;;;;;;6.50;5.07;;;25.30;94.60;;;;;;5073877;28;20470;-71
2023/06/22 10:16:40;;;;;;;6.65;5.53;;;25.20;94.40;;;;;;5074259;28;20490;-71
2023/06/22 10:19:06;;;;;;;8.38;4.85;;;25.20;94.50;;;;;;5073718;28;20060;-71
2023/06/22 10:21:32;;;;;;;7.43;4.88;;;25.10;94.60;;;;;;5074296;28;20052;-71
2023/06/22 10:23:59;;;;;;;4.75;4.18;;;25.10;94.50;;;;;;5073757;28;20025;-71
2023/06/22 10:26:25;;;;;;;7.93;4.60;;;25.10;94.60;;;;;;5074252;28;20033;-71
2023/06/22 10:28:51;;;;;;;7.28;3.80;;;25.10;94.60;;;;;;5073252;28;20028;-71
2023/06/22 10:31:16;;;;;;;5.50;4.03;;;25.00;94.80;;;;;;5074139;28;20063;-71
2023/06/22 10:33:43;;;;;;;7.85;4.10;;;24.90;95.00;;;;;;5074099;28;20024;-71
2023/06/22 10:36:10;;;;;;;7.47;3.78;;;25.00;95.00;;;;;;5073458;28;20040;-71
2023/06/22 10:38:36;;;;;;;7.03;3.95;;;25.00;95.00;;;;;;5073627;28;20085;-71
2023/06/22 10:41:02;;;;;;;6.95;4.15;;;25.00;95.20;;;;;;5073238;28;20091;-71
2023/06/22 10:43:27;;;;;;;7.45;3.78;;;25.10;95.30;;;;;;5072599;28;20095;-71
2023/06/22 10:45:53;;;;;;;6.28;3.80;;;25.10;95.30;;;;;;5073249;28;20596;-71
2023/06/22 10:48:18;;;;;;;4.63;3.90;;;25.20;95.70;;;;;;5073837;28;20029;-71
2023/06/22 10:50:44;;;;;;;6.13;4.18;;;25.10;95.60;;;;;;5073643;28;20027;-71
2023/06/22 10:53:10;;;;;;;5.22;3.33;;;25.10;95.40;;;;;;5072906;28;20143;-71
2023/06/22 10:55:35;;;;;;;5.05;3.53;;;25.10;95.40;;;;;;5072043;28;20062;-71
2023/06/22 10:58:00;;;;;;;5.57;3.80;;;25.10;96.00;;;;;;5073436;28;20036;-71
2023/06/22 11:00:26;;;;;;;5.63;3.70;;;25.20;95.60;;;;;;5073182;28;20017;-71
2023/06/22 11:02:51;;;;;;;4.35;3.60;;;25.20;95.30;;;;;;5073012;28;20028;-71
2023/06/22 11:05:17;;;;;;;5.97;3.83;;;25.10;95.20;;;;;;5073257;28;20039;-71
2023/06/22 11:07:44;;;;;;;5.88;3.85;;;25.10;95.10;;;;;;5073656;28;20103;-71
2023/06/22 11:10:10;;;;;;;7.55;3.75;;;25.10;95.00;;;;;;5072824;28;20021;-71
2023/06/22 11:12:36;;;;;;;6.20;3.40;;;25.00;94.90;;;;;;5072771;28;20478;-71
2023/06/22 11:15:01;;;;;;;5.40;4.00;;;24.90;94.90;;;;;;5073079;28;20037;-72
2023/06/22 11:17:27;;;;;;;8.35;4.43;;;24.90;95.00;;;;;;5071377;28;20086;-71
2023/06/22 11:19:53;;;;;;;6.25;3.72;;;24.90;94.90;;;;;;5072580;28;20390;-71
2023/06/22 11:22:18;;;;;;;7.50;3.97;;;24.80;94.90;;;;;;5072799;28;20024;-71
2023/06/22 11:24:43;;;;;;;7.30;4.45;;;24.70;95.10;;;;;;5072804;28;20102;-71
2023/06/22 11:27:09;;;;;;;5.18;4.53;;;24.70;95.60;;;;;;5072599;28;20032;-71
2023/06/22 11:29:35;;;;;;;6.57;4.97;;;24.50;95.90;;;;;;5072848;28;20423;-71
2023/06/22 11:32:01;;;;;;;6.93;5.22;;;24.40;96.30;;;;;;5072562;28;20032;-71
2023/06/22 11:34:27;;;;;;;6.20;5.40;;;24.30;97.10;;;;;;5072496;28;20493;-71
2023/06/22 11:36:53;;;;;;;7.57;5.30;;;24.10;97.70;;;;;;5072213;28;20024;-71
2023/06/22 11:39:19;;;;;;;8.13;5.60;;;23.90;98.10;;;;;;5072658;28;20086;-71
2023/06/22 11:41:44;;;;;;;7.32;5.97;;;23.70;98.80;;;;;;5072230;28;20428;-71
2023/06/22 11:44:10;;;;;;;6.53;5.90;;;23.50;99.50;;;;;;5071263;28;20119;-71
2023/06/22 11:46:35;;;;;;;7.50;6.80;;;23.30;99.90;;;;;;5072549;28;20032;-71
2023/06/22 11:49:01;;;;;;;9.10;6.50;;;23.10;99.90;;;;;;5072050;28;20395;-71
2023/06/22 11:51:27;;;;;;;9.55;8.02;;;22.90;99.90;;;;;;5072302;28;20024;-71
2023/06/22 11:53:53;;;;;;;8.70;7.50;;;22.70;99.90;;;;;;5072122;28;20013;-71
2023/06/22 11:56:19;;;;;;;9.27;7.97;;;22.60;99.90;;;;;;5071877;28;20494;-71
2023/06/22 11:58:44;;;;;;;10.02;8.20;;;22.50;99.90;;;;;;5072034;28;20070;-71
2023/06/22 12:01:10;;;;;;;15.25;8.68;;;22.50;99.90;;;;;;5071534;28;20044;-71
2023/06/22 12:03:35;;;;;;;10.05;8.70;;;22.40;99.90;;;;;;5070837;28;20021;-71
2023/06/22 12:06:01;;;;;;;9.48;8.45;;;22.20;99.90;;;;;;5070233;28;20104;-71
2023/06/22 12:08:26;;;;;;;10.50;9.40;;;22.10;99.90;;;;;;5071997;28;20080;-71
2023/06/22 12:10:54;;;;;;;12.18;9.98;;;22.10;99.90;;;;;;5071582;28;20512;-71
2023/06/22 12:13:19;;;;;;;15.75;10.70;;;22.00;99.90;;;;;;5071663;28;20024;-71
2023/06/22 12:15:45;;;;;;;16.48;11.13;;;21.90;99.90;;;;;;5062466;28;20036;-71
2023/06/22 12:18:11;;;;;;;12.55;10.60;;;21.80;99.90;;;;;;5051055;28;20033;-71
2023/06/22 12:20:37;;;;;;;14.65;11.02;;;21.70;99.90;;;;;;5061166;28;20032;-71
2023/06/22 12:23:02;;;;;;;15.02;12.18;;;21.60;99.90;;;;;;5071635;28;20028;-70
2023/06/22 12:25:28;;;;;;;19.50;13.38;;;21.50;99.90;;;;;;5072041;28;20497;-70
2023/06/22 12:27:53;;;;;;;15.40;12.57;;;21.40;99.90;;;;;;5069791;28;20029;-71
2023/06/22 12:30:19;;;;;;;16.48;12.45;;;21.30;99.90;;;;;;5071580;28;20099;-71
2023/06/22 12:32:45;;;;;;;17.85;13.23;;;21.20;99.90;;;;;;5071733;28;20032;-71
2023/06/22 12:35:13;;;;;;;18.27;13.57;;;21.00;99.90;;;;;;5071219;28;20513;-71